createdAt,value
2022-07-31T00:04:43.169Z,2.40
2022-07-31T00:09:49.282Z,2.10
2022-07-31T00:14:55.506Z,1.92
2022-07-31T00:19:56.848Z,2.47
2022-07-31T00:24:58.440Z,1.93
2022-07-31T00:29:59.765Z,2.10
2022-07-31T00:35:01.530Z,2.00
2022-07-31T00:40:05.304Z,2.00
2022-07-31T00:45:06.949Z,2.20
2022-07-31T00:50:08.630Z,2.15
2022-07-31T00:55:10.040Z,2.47
2022-07-31T01:00:13.524Z,1.90
2022-07-31T01:05:14.915Z,2.03
2022-07-31T01:10:42.366Z,2.20
2022-07-31T01:15:43.966Z,2.00
2022-07-31T01:20:46.666Z,2.08
2022-07-31T01:26:19.503Z,2.05
2022-07-31T01:31:27.641Z,2.03
2022-07-31T01:36:34.609Z,2.30
2022-07-31T01:41:41.808Z,2.38
2022-07-31T01:46:44.744Z,2.37
2022-07-31T01:51:46.440Z,2.45
2022-07-31T01:56:49.153Z,2.30
2022-07-31T02:01:51.454Z,2.57
2022-07-31T02:06:53.273Z,2.50
2022-07-31T02:11:55.330Z,2.72
2022-07-31T02:16:56.932Z,2.42
2022-07-31T02:21:59.318Z,2.27
2022-07-31T02:27:00.691Z,2.55
2022-07-31T02:32:03.464Z,2.40
2022-07-31T02:37:05.972Z,2.40
2022-07-31T02:42:07.997Z,2.30
2022-07-31T02:47:09.437Z,2.50
2022-07-31T02:52:11.638Z,2.37
2022-07-31T02:57:13.075Z,2.63
2022-07-31T03:02:14.376Z,2.60
2022-07-31T03:07:17.501Z,2.85
2022-07-31T03:12:18.892Z,2.20
2022-07-31T03:17:20.466Z,2.50
2022-07-31T03:22:21.752Z,2.50
2022-07-31T03:27:23.419Z,2.80
2022-07-31T03:32:24.734Z,2.30
2022-07-31T03:37:26.034Z,2.58
2022-07-31T03:42:28.330Z,2.20
2022-07-31T03:47:30.059Z,2.40
2022-07-31T03:52:31.417Z,2.75
2022-07-31T03:57:34.110Z,2.63
2022-07-31T04:02:35.772Z,2.77
2022-07-31T04:07:37.152Z,2.58
2022-07-31T04:12:38.445Z,2.60
2022-07-31T04:17:39.904Z,2.27
2022-07-31T04:22:41.360Z,2.40
2022-07-31T04:27:48.243Z,2.67
2022-07-31T04:32:52.972Z,2.60
2022-07-31T04:37:54.784Z,2.60
2022-07-31T04:42:56.081Z,2.50
2022-07-31T04:47:57.469Z,2.40
2022-07-31T04:52:58.717Z,2.60
2022-07-31T04:57:59.993Z,2.35
2022-07-31T05:03:01.275Z,2.40
2022-07-31T05:08:02.550Z,2.33
2022-07-31T05:13:03.861Z,2.50
2022-07-31T05:18:07.524Z,2.75
2022-07-31T05:23:08.837Z,2.47
2022-07-31T05:28:10.116Z,2.30
2022-07-31T05:33:11.444Z,2.60
2022-07-31T05:38:12.821Z,2.30
2022-07-31T05:43:14.097Z,2.50
2022-07-31T05:48:16.433Z,2.80
2022-07-31T05:53:18.552Z,2.85
2022-07-31T05:58:20.157Z,2.53
2022-07-31T06:03:27.689Z,2.60
2022-07-31T06:08:29.095Z,3.15
2022-07-31T06:13:30.708Z,3.00
2022-07-31T06:18:32.041Z,2.70
2022-07-31T06:23:33.335Z,2.90
2022-07-31T06:28:39.825Z,2.75
2022-07-31T06:33:50.118Z,2.90
2022-07-31T06:38:52.457Z,2.45
2022-07-31T06:43:53.740Z,2.50
2022-07-31T06:48:55.067Z,2.67
2022-07-31T06:53:56.808Z,2.97
2022-07-31T06:58:58.335Z,2.65
2022-07-31T07:03:59.905Z,2.80
2022-07-31T07:09:01.188Z,2.80
2022-07-31T07:14:02.480Z,2.50
2022-07-31T07:19:03.979Z,3.00
2022-07-31T07:24:05.421Z,2.60
2022-07-31T07:29:06.768Z,2.80
2022-07-31T07:34:09.791Z,2.50
2022-07-31T07:39:11.105Z,3.20
2022-07-31T07:44:12.445Z,2.60
2022-07-31T07:49:13.826Z,2.60
2022-07-31T07:54:15.361Z,2.90
2022-07-31T07:59:16.636Z,2.60
2022-07-31T08:04:17.925Z,2.72
2022-07-31T08:09:21.059Z,2.53
2022-07-31T08:14:22.563Z,2.53
2022-07-31T08:19:23.862Z,3.40
2022-07-31T08:24:25.141Z,2.83
2022-07-31T08:29:28.702Z,3.00
2022-07-31T08:34:31.282Z,3.13
2022-07-31T08:39:33.560Z,3.00
2022-07-31T08:44:38.397Z,2.90
2022-07-31T08:49:41.045Z,2.60
2022-07-31T08:54:43.910Z,2.70
2022-07-31T08:59:45.263Z,2.80
2022-07-31T09:04:51.956Z,2.50
2022-07-31T09:09:53.963Z,2.45
2022-07-31T09:14:55.247Z,2.45
2022-07-31T09:19:56.554Z,2.40
2022-07-31T09:25:07.608Z,2.30
2022-07-31T09:30:09.209Z,2.30
2022-07-31T09:35:11.793Z,2.53
2022-07-31T09:40:13.253Z,2.50
2022-07-31T09:45:17.808Z,2.58
2022-07-31T09:50:23.697Z,2.25
2022-07-31T09:55:25.149Z,2.30
2022-07-31T10:00:26.845Z,2.83
2022-07-31T10:05:28.133Z,2.20
2022-07-31T10:10:30.245Z,2.90
2022-07-31T10:15:33.070Z,2.20
2022-07-31T10:20:35.331Z,2.40
2022-07-31T10:25:41.416Z,2.40
2022-07-31T10:30:52.197Z,2.10
2022-07-31T10:36:03.449Z,2.28
2022-07-31T10:41:16.843Z,2.30
2022-07-31T10:46:28.488Z,2.23
2022-07-31T10:51:31.402Z,2.63
2022-07-31T10:56:43.341Z,2.08
2022-07-31T11:01:52.798Z,2.63
2022-07-31T11:06:55.955Z,2.00
2022-07-31T11:11:57.467Z,2.15
2022-07-31T11:16:58.797Z,2.17
2022-07-31T11:22:32.144Z,2.30
2022-07-31T11:27:33.474Z,2.22
2022-07-31T11:32:34.796Z,2.63
2022-07-31T11:37:46.403Z,2.40
2022-07-31T11:43:25.144Z,2.55
2022-07-31T11:48:20.603Z,2.50
2022-07-31T11:53:21.907Z,2.23
2022-07-31T11:58:23.997Z,2.33
2022-07-31T12:03:28.751Z,2.40
2022-07-31T12:08:30.279Z,2.60
2022-07-31T12:13:32.288Z,2.40
2022-07-31T12:18:46.201Z,2.20
2022-07-31T12:23:51.269Z,2.70
2022-07-31T12:29:22.069Z,2.70
2022-07-31T12:34:29.692Z,2.80
2022-07-31T12:39:54.775Z,3.10
2022-07-31T12:44:55.140Z,2.43
2022-07-31T12:49:57.085Z,2.40
2022-07-31T12:54:58.619Z,2.50
2022-07-31T12:59:59.928Z,2.37
2022-07-31T13:05:01.217Z,2.37
2022-07-31T13:10:20.422Z,2.83
2022-07-31T13:15:29.674Z,2.60
2022-07-31T13:20:31.384Z,2.50
2022-07-31T13:25:32.757Z,2.50
2022-07-31T13:30:34.046Z,2.40
2022-07-31T13:35:35.343Z,2.53
2022-07-31T13:40:55.370Z,2.72
2022-07-31T13:45:56.666Z,2.70
2022-07-31T13:50:57.984Z,2.90
2022-07-31T13:55:59.585Z,2.53
2022-07-31T14:01:04.364Z,2.60
2022-07-31T14:06:06.005Z,2.50
2022-07-31T14:11:13.781Z,2.60
2022-07-31T14:16:16.361Z,2.42
2022-07-31T14:21:17.640Z,2.50
2022-07-31T14:26:18.984Z,2.53
2022-07-31T14:31:20.273Z,2.65
2022-07-31T14:36:21.564Z,2.30
2022-07-31T14:41:22.906Z,2.40
2022-07-31T14:46:24.197Z,2.63
2022-07-31T14:51:25.512Z,2.25
2022-07-31T14:56:51.390Z,2.60
2022-07-31T15:01:48.181Z,2.20
2022-07-31T15:06:56.383Z,2.50
2022-07-31T15:12:04.358Z,2.15
2022-07-31T15:17:06.262Z,2.30
2022-07-31T15:22:10.406Z,2.40
2022-07-31T15:27:18.815Z,3.50
2022-07-31T15:32:20.157Z,2.87
2022-07-31T15:37:21.432Z,2.53
2022-07-31T15:42:23.312Z,3.00
2022-07-31T15:47:24.846Z,2.38
2022-07-31T15:52:26.409Z,2.77
2022-07-31T15:57:27.809Z,2.22
2022-07-31T16:02:29.144Z,2.40
2022-07-31T16:08:31.559Z,2.57
2022-07-31T16:12:51.900Z,1.88
2022-07-31T16:17:53.384Z,2.10
2022-07-31T16:22:55.974Z,1.97
2022-07-31T16:27:57.336Z,1.90
2022-07-31T16:32:58.703Z,1.90
2022-07-31T16:38:00.046Z,2.05
2022-07-31T16:43:48.711Z,1.80
2022-07-31T16:48:23.913Z,1.90
2022-07-31T16:54:10.048Z,1.70
2022-07-31T16:58:52.614Z,1.90
2022-07-31T17:04:00.445Z,1.70
2022-07-31T17:09:16.531Z,1.73
2022-07-31T17:14:20.338Z,2.00
2022-07-31T17:19:35.845Z,1.60
2022-07-31T17:24:44.370Z,1.92
2022-07-31T17:29:45.825Z,1.60
2022-07-31T17:34:49.284Z,1.80
2022-07-31T17:39:55.042Z,1.60
2022-07-31T17:45:01.638Z,1.60
2022-07-31T17:50:03.108Z,1.80
2022-07-31T17:55:05.629Z,1.70
2022-07-31T18:00:08.040Z,1.70
2022-07-31T18:05:09.748Z,1.80
2022-07-31T18:10:11.913Z,1.90
2022-07-31T18:15:14.647Z,1.60
2022-07-31T18:20:19.251Z,1.50
2022-07-31T18:25:20.573Z,1.50
2022-07-31T18:30:21.891Z,1.63
2022-07-31T18:35:23.198Z,2.40
2022-07-31T18:40:24.518Z,1.60
2022-07-31T18:45:25.880Z,1.58
2022-07-31T18:50:59.213Z,1.80
2022-07-31T18:55:48.495Z,1.80
2022-07-31T19:00:54.570Z,1.60
2022-07-31T19:05:56.502Z,1.98
2022-07-31T19:10:57.946Z,1.53
2022-07-31T19:15:59.233Z,1.83
2022-07-31T19:21:16.758Z,1.55
2022-07-31T19:26:21.811Z,1.60
2022-07-31T19:31:24.030Z,1.80
2022-07-31T19:36:29.037Z,2.00
2022-07-31T19:41:30.367Z,1.75
2022-07-31T19:46:31.765Z,2.57
2022-07-31T19:51:33.028Z,2.10
2022-07-31T19:56:34.424Z,1.98
2022-07-31T20:01:35.733Z,1.90
2022-07-31T20:06:39.037Z,2.03
2022-07-31T20:11:40.328Z,2.25
2022-07-31T20:16:41.615Z,1.90
2022-07-31T20:21:43.803Z,2.53
2022-07-31T20:26:45.202Z,2.17
2022-07-31T20:31:47.203Z,2.50
2022-07-31T20:36:48.552Z,1.77
2022-07-31T20:41:49.858Z,2.00
2022-07-31T20:46:51.160Z,1.80
2022-07-31T20:51:54.740Z,1.70
2022-07-31T20:56:56.030Z,2.22
2022-07-31T21:01:57.316Z,1.83
2022-07-31T21:06:59.691Z,2.07
2022-07-31T21:12:02.370Z,2.07
2022-07-31T21:17:03.858Z,2.25
2022-07-31T21:22:05.451Z,2.15
2022-07-31T21:27:09.699Z,1.90
2022-07-31T21:32:11.830Z,1.90
2022-07-31T21:37:16.339Z,2.17
2022-07-31T21:42:18.040Z,2.30
2022-07-31T21:47:20.083Z,2.58
2022-07-31T21:52:22.079Z,2.47
2022-07-31T21:57:23.462Z,2.20
2022-07-31T22:02:24.734Z,2.13
2022-07-31T22:07:31.964Z,2.30
2022-07-31T22:12:34.132Z,2.40
2022-07-31T22:17:35.433Z,2.30
2022-07-31T22:22:37.117Z,2.35
2022-07-31T22:27:55.267Z,2.47
2022-07-31T22:32:58.769Z,2.03
2022-07-31T22:38:00.145Z,2.40
2022-07-31T22:43:02.343Z,2.50
2022-07-31T22:48:04.842Z,2.00
2022-07-31T22:53:06.159Z,2.20
2022-07-31T22:58:10.461Z,2.05
2022-07-31T23:03:11.747Z,1.95
2022-07-31T23:08:13.041Z,2.20
2022-07-31T23:13:14.322Z,2.10
2022-07-31T23:18:15.577Z,2.20
2022-07-31T23:23:16.891Z,2.50
2022-07-31T23:28:18.165Z,2.10
2022-07-31T23:33:19.486Z,2.20
2022-07-31T23:38:20.846Z,2.40
2022-07-31T23:43:22.650Z,2.20
2022-07-31T23:48:23.995Z,2.20
2022-07-31T23:53:30.615Z,2.13
2022-07-31T23:58:31.885Z,2.30
